sensor_id;sensor_type;location;lat;lon;timestamp;temperature;humidity
26408;DHT22;14583;43.604;1.364;2023-09-19T00:01:06;20.20;99.90
26408;DHT22;14583;43.604;1.364;2023-09-19T00:03:37;20.10;99.90
26408;DHT22;14583;43.604;1.364;2023-09-19T00:06:04;20.20;99.90
26408;DHT22;14583;43.604;1.364;2023-09-19T00:08:31;20.20;99.90
26408;DHT22;14583;43.604;1.364;2023-09-19T00:10:58;20.10;99.90
26408;DHT22;14583;43.604;1.364;2023-09-19T00:13:29;20.10;99.90
26408;DHT22;14583;43.604;1.364;2023-09-19T00:15:56;20.00;99.90
26408;DHT22;14583;43.604;1.364;2023-09-19T00:18:25;20.00;99.90
26408;DHT22;14583;43.604;1.364;2023-09-19T00:21:01;20.00;99.90
26408;DHT22;14583;43.604;1.364;2023-09-19T00:23:27;19.80;99.90
26408;DHT22;14583;43.604;1.364;2023-09-19T00:25:53;19.70;99.90
26408;DHT22;14583;43.604;1.364;2023-09-19T00:28:22;19.60;99.90
26408;DHT22;14583;43.604;1.364;2023-09-19T00:30:48;19.50;99.90
26408;DHT22;14583;43.604;1.364;2023-09-19T00:33:18;19.60;99.90
26408;DHT22;14583;43.604;1.364;2023-09-19T00:35:51;19.80;99.90
26408;DHT22;14583;43.604;1.364;2023-09-19T00:38:18;19.70;99.90
26408;DHT22;14583;43.604;1.364;2023-09-19T00:40:49;19.70;99.90
26408;DHT22;14583;43.604;1.364;2023-09-19T00:43:18;19.80;99.90
26408;DHT22;14583;43.604;1.364;2023-09-19T00:45:47;20.00;99.90
26408;DHT22;14583;43.604;1.364;2023-09-19T00:48:14;19.90;99.90
26408;DHT22;14583;43.604;1.364;2023-09-19T00:50:42;19.80;99.90
26408;DHT22;14583;43.604;1.364;2023-09-19T00:53:09;19.80;99.90
26408;DHT22;14583;43.604;1.364;2023-09-19T00:55:36;19.80;99.90
26408;DHT22;14583;43.604;1.364;2023-09-19T00:58:03;19.70;99.90
26408;DHT22;14583;43.604;1.364;2023-09-19T01:00:33;19.70;99.90
26408;DHT22;14583;43.604;1.364;2023-09-19T01:03:00;19.80;99.90
26408;DHT22;14583;43.604;1.364;2023-09-19T01:05:29;19.80;99.90
26408;DHT22;14583;43.604;1.364;2023-09-19T01:07:55;19.80;99.90
26408;DHT22;14583;43.604;1.364;2023-09-19T01:10:21;19.70;99.90
26408;DHT22;14583;43.604;1.364;2023-09-19T01:30:14;19.60;99.90
26408;DHT22;14583;43.604;1.364;2023-09-19T01:32:43;19.60;99.90
26408;DHT22;14583;43.604;1.364;2023-09-19T01:35:11;19.50;99.90
26408;DHT22;14583;43.604;1.364;2023-09-19T01:37:38;19.50;99.90
26408;DHT22;14583;43.604;1.364;2023-09-19T01:40:10;19.40;99.90
26408;DHT22;14583;43.604;1.364;2023-09-19T01:51:07;19.50;99.90
26408;DHT22;14583;43.604;1.364;2023-09-19T01:59:21;19.10;99.90
26408;DHT22;14583;43.604;1.364;2023-09-19T02:01:49;18.90;99.90
26408;DHT22;14583;43.604;1.364;2023-09-19T02:04:16;18.90;99.90
26408;DHT22;14583;43.604;1.364;2023-09-19T02:06:42;18.80;99.90
26408;DHT22;14583;43.604;1.364;2023-09-19T02:09:08;19.00;99.90
26408;DHT22;14583;43.604;1.364;2023-09-19T02:11:35;19.00;99.90
26408;DHT22;14583;43.604;1.364;2023-09-19T02:14:02;19.00;99.90
26408;DHT22;14583;43.604;1.364;2023-09-19T02:16:28;18.80;99.90
26408;DHT22;14583;43.604;1.364;2023-09-19T02:18:54;18.90;99.90
26408;DHT22;14583;43.604;1.364;2023-09-19T02:21:20;19.10;99.90
26408;DHT22;14583;43.604;1.364;2023-09-19T02:23:47;19.00;99.90
26408;DHT22;14583;43.604;1.364;2023-09-19T02:26:13;19.00;99.90
26408;DHT22;14583;43.604;1.364;2023-09-19T02:28:39;19.00;99.90
26408;DHT22;14583;43.604;1.364;2023-09-19T02:31:05;19.10;99.90
26408;DHT22;14583;43.604;1.364;2023-09-19T02:33:31;19.20;99.90
26408;DHT22;14583;43.604;1.364;2023-09-19T02:35:58;19.20;99.90
26408;DHT22;14583;43.604;1.364;2023-09-19T02:38:25;19.10;99.90
26408;DHT22;14583;43.604;1.364;2023-09-19T02:40:55;19.30;99.90
26408;DHT22;14583;43.604;1.364;2023-09-19T02:43:22;19.10;99.90
26408;DHT22;14583;43.604;1.364;2023-09-19T02:45:48;19.20;99.90
26408;DHT22;14583;43.604;1.364;2023-09-19T02:48:22;19.40;99.90
26408;DHT22;14583;43.604;1.364;2023-09-19T02:50:51;19.40;99.90
26408;DHT22;14583;43.604;1.364;2023-09-19T02:53:17;19.20;99.90
26408;DHT22;14583;43.604;1.364;2023-09-19T02:55:44;19.20;99.90
26408;DHT22;14583;43.604;1.364;2023-09-19T02:58:10;19.10;99.90
26408;DHT22;14583;43.604;1.364;2023-09-19T03:00:41;19.00;99.90
26408;DHT22;14583;43.604;1.364;2023-09-19T03:03:08;19.00;99.90
26408;DHT22;14583;43.604;1.364;2023-09-19T03:05:34;19.00;99.90
26408;DHT22;14583;43.604;1.364;2023-09-19T03:08:00;18.90;99.90
26408;DHT22;14583;43.604;1.364;2023-09-19T03:10:27;18.90;99.90
26408;DHT22;14583;43.604;1.364;2023-09-19T03:12:53;18.80;99.90
26408;DHT22;14583;43.604;1.364;2023-09-19T03:15:19;18.80;99.90
26408;DHT22;14583;43.604;1.364;2023-09-19T03:17:47;18.70;99.90
26408;DHT22;14583;43.604;1.364;2023-09-19T03:20:16;18.80;99.90
26408;DHT22;14583;43.604;1.364;2023-09-19T03:22:46;18.70;99.90
26408;DHT22;14583;43.604;1.364;2023-09-19T03:25:11;18.80;99.90
26408;DHT22;14583;43.604;1.364;2023-09-19T03:27:38;18.70;99.90
26408;DHT22;14583;43.604;1.364;2023-09-19T03:30:05;18.60;99.90
26408;DHT22;14583;43.604;1.364;2023-09-19T03:32:37;18.50;99.90
26408;DHT22;14583;43.604;1.364;2023-09-19T03:35:08;18.50;99.90
26408;DHT22;14583;43.604;1.364;2023-09-19T03:37:43;18.50;99.90
26408;DHT22;14583;43.604;1.364;2023-09-19T03:40:10;18.60;99.90
26408;DHT22;14583;43.604;1.364;2023-09-19T03:42:40;18.70;99.90
26408;DHT22;14583;43.604;1.364;2023-09-19T03:45:07;18.70;99.90
26408;DHT22;14583;43.604;1.364;2023-09-19T03:47:36;18.60;99.90
26408;DHT22;14583;43.604;1.364;2023-09-19T03:50:02;18.60;99.90
26408;DHT22;14583;43.604;1.364;2023-09-19T03:52:28;18.40;99.90
26408;DHT22;14583;43.604;1.364;2023-09-19T03:54:54;18.40;99.90
26408;DHT22;14583;43.604;1.364;2023-09-19T03:57:20;18.50;99.90
26408;DHT22;14583;43.604;1.364;2023-09-19T03:59:46;18.60;99.90
26408;DHT22;14583;43.604;1.364;2023-09-19T04:02:13;18.60;99.90
26408;DHT22;14583;43.604;1.364;2023-09-19T04:04:50;18.60;99.90
26408;DHT22;14583;43.604;1.364;2023-09-19T04:07:17;18.60;99.90
26408;DHT22;14583;43.604;1.364;2023-09-19T04:09:42;18.60;99.90
26408;DHT22;14583;43.604;1.364;2023-09-19T04:12:08;18.80;99.90
26408;DHT22;14583;43.604;1.364;2023-09-19T04:14:34;18.80;99.90
26408;DHT22;14583;43.604;1.364;2023-09-19T04:17:00;18.80;99.90
26408;DHT22;14583;43.604;1.364;2023-09-19T04:19:26;18.60;99.90
26408;DHT22;14583;43.604;1.364;2023-09-19T04:21:51;18.50;99.90
26408;DHT22;14583;43.604;1.364;2023-09-19T04:24:17;18.50;99.90
26408;DHT22;14583;43.604;1.364;2023-09-19T04:26:45;18.50;99.90
26408;DHT22;14583;43.604;1.364;2023-09-19T04:29:10;18.50;99.90
26408;DHT22;14583;43.604;1.364;2023-09-19T04:31:39;18.50;99.90
26408;DHT22;14583;43.604;1.364;2023-09-19T04:34:06;18.50;99.90
26408;DHT22;14583;43.604;1.364;2023-09-19T04:36:33;18.50;99.90
26408;DHT22;14583;43.604;1.364;2023-09-19T04:38:59;18.50;99.90
26408;DHT22;14583;43.604;1.364;2023-09-19T04:41:25;18.50;99.90
26408;DHT22;14583;43.604;1.364;2023-09-19T04:43:51;18.40;99.90
26408;DHT22;14583;43.604;1.364;2023-09-19T04:46:16;18.30;99.90
26408;DHT22;14583;43.604;1.364;2023-09-19T04:48:43;18.20;99.90
26408;DHT22;14583;43.604;1.364;2023-09-19T04:51:09;18.10;99.90
26408;DHT22;14583;43.604;1.364;2023-09-19T04:53:36;18.10;99.90
26408;DHT22;14583;43.604;1.364;2023-09-19T04:56:02;18.10;99.90
26408;DHT22;14583;43.604;1.364;2023-09-19T04:58:33;18.10;99.90
26408;DHT22;14583;43.604;1.364;2023-09-19T05:00:59;18.10;99.90
26408;DHT22;14583;43.604;1.364;2023-09-19T05:03:25;18.10;99.90
26408;DHT22;14583;43.604;1.364;2023-09-19T05:05:50;18.10;99.90
26408;DHT22;14583;43.604;1.364;2023-09-19T05:08:16;18.10;99.90
26408;DHT22;14583;43.604;1.364;2023-09-19T05:10:42;18.10;99.90
26408;DHT22;14583;43.604;1.364;2023-09-19T05:13:07;18.20;99.90
26408;DHT22;14583;43.604;1.364;2023-09-19T05:15:34;18.30;99.90
26408;DHT22;14583;43.604;1.364;2023-09-19T05:18:01;18.20;99.90
26408;DHT22;14583;43.604;1.364;2023-09-19T05:20:27;18.40;99.90
26408;DHT22;14583;43.604;1.364;2023-09-19T05:23:03;18.50;99.90
26408;DHT22;14583;43.604;1.364;2023-09-19T05:25:35;18.30;99.90
26408;DHT22;14583;43.604;1.364;2023-09-19T05:28:09;18.30;99.90
26408;DHT22;14583;43.604;1.364;2023-09-19T05:30:36;18.30;99.90
26408;DHT22;14583;43.604;1.364;2023-09-19T05:33:04;18.40;99.90
26408;DHT22;14583;43.604;1.364;2023-09-19T05:35:30;18.50;99.90
26408;DHT22;14583;43.604;1.364;2023-09-19T05:37:56;18.50;99.90
26408;DHT22;14583;43.604;1.364;2023-09-19T05:40:23;18.50;99.90
26408;DHT22;14583;43.604;1.364;2023-09-19T05:42:49;18.40;99.90
26408;DHT22;14583;43.604;1.364;2023-09-19T05:45:16;18.40;99.90
26408;DHT22;14583;43.604;1.364;2023-09-19T05:47:48;18.50;99.90
26408;DHT22;14583;43.604;1.364;2023-09-19T05:50:14;18.50;99.90
26408;DHT22;14583;43.604;1.364;2023-09-19T05:52:42;18.40;99.90
26408;DHT22;14583;43.604;1.364;2023-09-19T05:55:08;18.40;99.90
26408;DHT22;14583;43.604;1.364;2023-09-19T05:57:37;18.10;99.90
26408;DHT22;14583;43.604;1.364;2023-09-19T06:00:08;18.10;99.90
26408;DHT22;14583;43.604;1.364;2023-09-19T06:02:37;18.20;99.90
26408;DHT22;14583;43.604;1.364;2023-09-19T06:05:05;18.00;99.90
26408;DHT22;14583;43.604;1.364;2023-09-19T06:07:32;18.00;99.90
26408;DHT22;14583;43.604;1.364;2023-09-19T06:10:05;18.10;99.90
26408;DHT22;14583;43.604;1.364;2023-09-19T06:12:32;18.10;99.90
26408;DHT22;14583;43.604;1.364;2023-09-19T06:15:03;18.20;99.90
26408;DHT22;14583;43.604;1.364;2023-09-19T06:17:30;18.00;99.90
26408;DHT22;14583;43.604;1.364;2023-09-19T06:19:56;18.10;99.90
26408;DHT22;14583;43.604;1.364;2023-09-19T06:22:23;18.10;99.90
26408;DHT22;14583;43.604;1.364;2023-09-19T06:24:49;18.00;99.90
26408;DHT22;14583;43.604;1.364;2023-09-19T06:27:15;18.10;99.90
26408;DHT22;14583;43.604;1.364;2023-09-19T06:29:41;18.20;99.90
26408;DHT22;14583;43.604;1.364;2023-09-19T06:32:10;18.30;99.90
26408;DHT22;14583;43.604;1.364;2023-09-19T06:34:36;18.20;99.90
26408;DHT22;14583;43.604;1.364;2023-09-19T06:37:04;18.20;99.90
26408;DHT22;14583;43.604;1.364;2023-09-19T06:39:31;18.10;99.90
26408;DHT22;14583;43.604;1.364;2023-09-19T06:41:57;18.10;99.90
26408;DHT22;14583;43.604;1.364;2023-09-19T06:44:23;18.20;99.90
26408;DHT22;14583;43.604;1.364;2023-09-19T06:46:50;18.30;99.90
26408;DHT22;14583;43.604;1.364;2023-09-19T06:49:17;18.30;99.90
26408;DHT22;14583;43.604;1.364;2023-09-19T06:51:43;18.30;99.90
26408;DHT22;14583;43.604;1.364;2023-09-19T06:54:09;18.40;99.90
26408;DHT22;14583;43.604;1.364;2023-09-19T06:56:35;18.50;99.90
26408;DHT22;14583;43.604;1.364;2023-09-19T06:59:01;18.60;99.90
26408;DHT22;14583;43.604;1.364;2023-09-19T07:01:28;18.70;99.90
26408;DHT22;14583;43.604;1.364;2023-09-19T07:03:54;18.70;99.90
26408;DHT22;14583;43.604;1.364;2023-09-19T07:06:20;18.70;99.90
26408;DHT22;14583;43.604;1.364;2023-09-19T07:08:46;18.70;99.90
26408;DHT22;14583;43.604;1.364;2023-09-19T07:11:11;18.60;99.90
26408;DHT22;14583;43.604;1.364;2023-09-19T07:13:38;18.70;99.90
26408;DHT22;14583;43.604;1.364;2023-09-19T07:16:04;18.80;99.90
26408;DHT22;14583;43.604;1.364;2023-09-19T07:18:30;18.80;99.90
26408;DHT22;14583;43.604;1.364;2023-09-19T07:20:58;18.80;99.90
26408;DHT22;14583;43.604;1.364;2023-09-19T07:23:30;18.90;99.90
26408;DHT22;14583;43.604;1.364;2023-09-19T07:26:00;18.80;99.90
26408;DHT22;14583;43.604;1.364;2023-09-19T07:28:26;18.80;99.90
26408;DHT22;14583;43.604;1.364;2023-09-19T07:30:52;18.90;99.90
26408;DHT22;14583;43.604;1.364;2023-09-19T07:33:18;18.90;99.90
26408;DHT22;14583;43.604;1.364;2023-09-19T07:35:47;19.00;99.90
26408;DHT22;14583;43.604;1.364;2023-09-19T07:38:13;19.10;99.90
26408;DHT22;14583;43.604;1.364;2023-09-19T07:40:39;19.00;99.90
26408;DHT22;14583;43.604;1.364;2023-09-19T07:43:05;19.00;99.90
26408;DHT22;14583;43.604;1.364;2023-09-19T07:45:32;19.20;99.90
26408;DHT22;14583;43.604;1.364;2023-09-19T07:47:58;19.30;99.90
26408;DHT22;14583;43.604;1.364;2023-09-19T07:50:25;19.30;99.90
26408;DHT22;14583;43.604;1.364;2023-09-19T07:52:52;19.30;99.90
26408;DHT22;14583;43.604;1.364;2023-09-19T07:55:19;19.40;99.90
26408;DHT22;14583;43.604;1.364;2023-09-19T07:57:48;19.40;99.90
26408;DHT22;14583;43.604;1.364;2023-09-19T08:00:14;19.50;99.90
26408;DHT22;14583;43.604;1.364;2023-09-19T08:02:41;19.60;99.90
26408;DHT22;14583;43.604;1.364;2023-09-19T08:05:11;19.70;99.90
26408;DHT22;14583;43.604;1.364;2023-09-19T08:07:40;19.70;99.90
26408;DHT22;14583;43.604;1.364;2023-09-19T08:10:07;19.70;99.90
26408;DHT22;14583;43.604;1.364;2023-09-19T08:12:36;19.80;99.90
26408;DHT22;14583;43.604;1.364;2023-09-19T08:15:05;19.90;99.90
26408;DHT22;14583;43.604;1.364;2023-09-19T08:17:35;20.10;99.90
26408;DHT22;14583;43.604;1.364;2023-09-19T08:20:01;20.10;99.90
26408;DHT22;14583;43.604;1.364;2023-09-19T08:22:28;20.30;99.90
26408;DHT22;14583;43.604;1.364;2023-09-19T08:24:54;20.30;99.90
26408;DHT22;14583;43.604;1.364;2023-09-19T08:27:19;20.40;99.90
26408;DHT22;14583;43.604;1.364;2023-09-19T08:29:46;20.40;99.90
26408;DHT22;14583;43.604;1.364;2023-09-19T08:32:12;20.40;99.90
26408;DHT22;14583;43.604;1.364;2023-09-19T08:34:37;20.40;99.90
26408;DHT22;14583;43.604;1.364;2023-09-19T08:37:04;20.50;99.90
26408;DHT22;14583;43.604;1.364;2023-09-19T08:39:30;20.50;99.90
26408;DHT22;14583;43.604;1.364;2023-09-19T08:42:00;20.60;99.90
26408;DHT22;14583;43.604;1.364;2023-09-19T08:44:26;20.50;99.90
26408;DHT22;14583;43.604;1.364;2023-09-19T08:50:03;20.80;99.90
26408;DHT22;14583;43.604;1.364;2023-09-19T08:52:41;20.90;99.90
26408;DHT22;14583;43.604;1.364;2023-09-19T08:55:07;20.90;99.90
26408;DHT22;14583;43.604;1.364;2023-09-19T08:57:38;20.90;99.90
26408;DHT22;14583;43.604;1.364;2023-09-19T09:00:08;20.90;99.90
26408;DHT22;14583;43.604;1.364;2023-09-19T09:02:38;20.90;99.90
26408;DHT22;14583;43.604;1.364;2023-09-19T09:05:09;21.00;99.90
26408;DHT22;14583;43.604;1.364;2023-09-19T09:07:40;21.20;99.90
26408;DHT22;14583;43.604;1.364;2023-09-19T09:10:06;21.30;99.90
26408;DHT22;14583;43.604;1.364;2023-09-19T09:12:33;21.40;99.90
26408;DHT22;14583;43.604;1.364;2023-09-19T09:15:02;21.50;99.90
26408;DHT22;14583;43.604;1.364;2023-09-19T09:17:29;21.60;99.90
26408;DHT22;14583;43.604;1.364;2023-09-19T09:19:56;21.40;99.90
26408;DHT22;14583;43.604;1.364;2023-09-19T09:22:22;21.40;99.90
26408;DHT22;14583;43.604;1.364;2023-09-19T09:24:57;21.30;99.90
26408;DHT22;14583;43.604;1.364;2023-09-19T09:27:23;21.20;99.90
26408;DHT22;14583;43.604;1.364;2023-09-19T09:29:51;21.20;99.90
26408;DHT22;14583;43.604;1.364;2023-09-19T09:34:49;21.10;99.90
26408;DHT22;14583;43.604;1.364;2023-09-19T09:37:16;21.20;99.90
26408;DHT22;14583;43.604;1.364;2023-09-19T09:40:04;21.10;99.90
26408;DHT22;14583;43.604;1.364;2023-09-19T09:42:42;21.10;99.90
26408;DHT22;14583;43.604;1.364;2023-09-19T09:47:47;21.20;99.90
26408;DHT22;14583;43.604;1.364;2023-09-19T09:52:55;21.20;99.90
26408;DHT22;14583;43.604;1.364;2023-09-19T09:55:29;21.20;99.90
26408;DHT22;14583;43.604;1.364;2023-09-19T09:58:17;21.30;99.90
26408;DHT22;14583;43.604;1.364;2023-09-19T10:00:56;21.40;99.90
26408;DHT22;14583;43.604;1.364;2023-09-19T10:03:36;21.60;99.90
26408;DHT22;14583;43.604;1.364;2023-09-19T10:06:11;21.80;99.90
26408;DHT22;14583;43.604;1.364;2023-09-19T10:09:08;21.90;99.90
26408;DHT22;14583;43.604;1.364;2023-09-19T10:12:06;21.70;99.90
26408;DHT22;14583;43.604;1.364;2023-09-19T10:14:37;21.80;99.90
26408;DHT22;14583;43.604;1.364;2023-09-19T10:17:05;22.00;99.90
26408;DHT22;14583;43.604;1.364;2023-09-19T10:19:54;22.10;99.90
26408;DHT22;14583;43.604;1.364;2023-09-19T10:22:23;21.90;99.90
26408;DHT22;14583;43.604;1.364;2023-09-19T10:24:50;22.00;99.90
26408;DHT22;14583;43.604;1.364;2023-09-19T10:27:19;22.10;99.90
26408;DHT22;14583;43.604;1.364;2023-09-19T10:29:49;22.30;99.90
26408;DHT22;14583;43.604;1.364;2023-09-19T10:32:19;22.30;99.90
26408;DHT22;14583;43.604;1.364;2023-09-19T10:34:47;22.30;99.90
26408;DHT22;14583;43.604;1.364;2023-09-19T10:37:13;22.40;99.90
26408;DHT22;14583;43.604;1.364;2023-09-19T10:39:41;22.40;99.90
26408;DHT22;14583;43.604;1.364;2023-09-19T10:42:16;22.40;99.90
26408;DHT22;14583;43.604;1.364;2023-09-19T10:44:45;22.50;99.90
26408;DHT22;14583;43.604;1.364;2023-09-19T10:47:12;22.50;99.90
26408;DHT22;14583;43.604;1.364;2023-09-19T10:49:46;22.60;99.90
26408;DHT22;14583;43.604;1.364;2023-09-19T10:52:16;22.60;99.90
26408;DHT22;14583;43.604;1.364;2023-09-19T10:54:49;22.70;99.90
26408;DHT22;14583;43.604;1.364;2023-09-19T10:57:20;22.80;99.90
26408;DHT22;14583;43.604;1.364;2023-09-19T11:00:08;23.00;99.90
26408;DHT22;14583;43.604;1.364;2023-09-19T11:05:39;23.10;99.90
26408;DHT22;14583;43.604;1.364;2023-09-19T11:08:07;23.00;99.90
26408;DHT22;14583;43.604;1.364;2023-09-19T11:10:49;22.80;99.90
26408;DHT22;14583;43.604;1.364;2023-09-19T11:13:30;22.50;99.90
26408;DHT22;14583;43.604;1.364;2023-09-19T11:16:04;22.50;99.90
26408;DHT22;14583;43.604;1.364;2023-09-19T11:26:47;22.60;99.90
26408;DHT22;14583;43.604;1.364;2023-09-19T11:29:32;22.80;99.90
26408;DHT22;14583;43.604;1.364;2023-09-19T11:31:58;22.90;99.90
26408;DHT22;14583;43.604;1.364;2023-09-19T11:34:40;22.90;99.90
26408;DHT22;14583;43.604;1.364;2023-09-19T11:39:40;22.90;99.90
26408;DHT22;14583;43.604;1.364;2023-09-19T11:47:55;23.00;99.90
26408;DHT22;14583;43.604;1.364;2023-09-19T11:50:24;23.30;99.90
26408;DHT22;14583;43.604;1.364;2023-09-19T11:52:51;23.20;99.90
26408;DHT22;14583;43.604;1.364;2023-09-19T11:55:17;23.30;99.90
26408;DHT22;14583;43.604;1.364;2023-09-19T11:57:48;23.20;99.90
26408;DHT22;14583;43.604;1.364;2023-09-19T12:00:19;23.30;99.90
26408;DHT22;14583;43.604;1.364;2023-09-19T12:02:47;23.30;99.90
26408;DHT22;14583;43.604;1.364;2023-09-19T12:05:16;23.20;99.90
26408;DHT22;14583;43.604;1.364;2023-09-19T12:07:43;23.10;99.90
26408;DHT22;14583;43.604;1.364;2023-09-19T12:10:13;23.20;99.90
26408;DHT22;14583;43.604;1.364;2023-09-19T12:12:47;23.20;99.90
26408;DHT22;14583;43.604;1.364;2023-09-19T12:15:14;23.30;99.90
26408;DHT22;14583;43.604;1.364;2023-09-19T12:17:41;23.40;99.90
26408;DHT22;14583;43.604;1.364;2023-09-19T12:20:08;23.50;99.90
26408;DHT22;14583;43.604;1.364;2023-09-19T12:22:43;23.50;99.90
26408;DHT22;14583;43.604;1.364;2023-09-19T12:25:09;23.50;99.90
26408;DHT22;14583;43.604;1.364;2023-09-19T12:27:47;23.50;99.90
26408;DHT22;14583;43.604;1.364;2023-09-19T12:30:15;23.50;99.90
26408;DHT22;14583;43.604;1.364;2023-09-19T12:32:43;23.40;99.90
26408;DHT22;14583;43.604;1.364;2023-09-19T12:35:10;23.60;99.90
26408;DHT22;14583;43.604;1.364;2023-09-19T12:37:45;23.60;99.90
26408;DHT22;14583;43.604;1.364;2023-09-19T12:40:21;23.50;99.90
26408;DHT22;14583;43.604;1.364;2023-09-19T12:42:52;23.40;99.90
26408;DHT22;14583;43.604;1.364;2023-09-19T12:45:19;23.50;99.90
26408;DHT22;14583;43.604;1.364;2023-09-19T12:51:08;23.60;99.90
26408;DHT22;14583;43.604;1.364;2023-09-19T12:53:40;23.70;99.90
26408;DHT22;14583;43.604;1.364;2023-09-19T12:56:11;23.70;99.90
26408;DHT22;14583;43.604;1.364;2023-09-19T12:58:51;23.80;99.90
26408;DHT22;14583;43.604;1.364;2023-09-19T13:01:24;23.90;99.90
26408;DHT22;14583;43.604;1.364;2023-09-19T13:04:15;24.00;99.90
26408;DHT22;14583;43.604;1.364;2023-09-19T13:06:52;24.00;99.90
26408;DHT22;14583;43.604;1.364;2023-09-19T13:09:19;24.10;99.90
26408;DHT22;14583;43.604;1.364;2023-09-19T13:11:46;24.20;99.90
26408;DHT22;14583;43.604;1.364;2023-09-19T13:14:24;24.30;99.90
26408;DHT22;14583;43.604;1.364;2023-09-19T13:19:48;24.50;99.90
26408;DHT22;14583;43.604;1.364;2023-09-19T13:22:40;24.50;99.90
26408;DHT22;14583;43.604;1.364;2023-09-19T13:25:26;24.40;99.90
26408;DHT22;14583;43.604;1.364;2023-09-19T13:27:55;24.50;99.90
26408;DHT22;14583;43.604;1.364;2023-09-19T13:30:26;24.50;99.90
26408;DHT22;14583;43.604;1.364;2023-09-19T13:32:52;24.70;99.90
26408;DHT22;14583;43.604;1.364;2023-09-19T13:35:19;24.70;99.90
26408;DHT22;14583;43.604;1.364;2023-09-19T13:37:46;24.80;99.90
26408;DHT22;14583;43.604;1.364;2023-09-19T13:40:17;24.80;99.90
26408;DHT22;14583;43.604;1.364;2023-09-19T13:42:43;24.80;99.90
26408;DHT22;14583;43.604;1.364;2023-09-19T13:45:09;24.90;99.90
26408;DHT22;14583;43.604;1.364;2023-09-19T13:47:38;25.00;99.90
26408;DHT22;14583;43.604;1.364;2023-09-19T13:50:04;25.10;99.90
26408;DHT22;14583;43.604;1.364;2023-09-19T13:52:31;25.10;99.90
26408;DHT22;14583;43.604;1.364;2023-09-19T13:54:57;25.20;99.80
26408;DHT22;14583;43.604;1.364;2023-09-19T13:57:24;25.30;99.90
26408;DHT22;14583;43.604;1.364;2023-09-19T13:59:52;25.30;99.80
26408;DHT22;14583;43.604;1.364;2023-09-19T14:02:20;25.50;99.50
26408;DHT22;14583;43.604;1.364;2023-09-19T14:04:48;25.50;99.30
26408;DHT22;14583;43.604;1.364;2023-09-19T14:07:14;25.50;99.30
26408;DHT22;14583;43.604;1.364;2023-09-19T14:09:43;25.50;99.20
26408;DHT22;14583;43.604;1.364;2023-09-19T14:12:09;25.60;99.20
26408;DHT22;14583;43.604;1.364;2023-09-19T14:14:34;25.60;98.60
26408;DHT22;14583;43.604;1.364;2023-09-19T14:17:00;25.70;98.40
26408;DHT22;14583;43.604;1.364;2023-09-19T14:19:28;25.90;99.50
26408;DHT22;14583;43.604;1.364;2023-09-19T14:21:54;25.90;98.40
26408;DHT22;14583;43.604;1.364;2023-09-19T14:24:21;26.10;99.90
26408;DHT22;14583;43.604;1.364;2023-09-19T14:26:48;26.40;99.10
26408;DHT22;14583;43.604;1.364;2023-09-19T14:29:15;26.50;99.90
26408;DHT22;14583;43.604;1.364;2023-09-19T14:31:41;26.70;99.00
26408;DHT22;14583;43.604;1.364;2023-09-19T14:34:06;26.70;97.60
26408;DHT22;14583;43.604;1.364;2023-09-19T14:36:33;26.80;97.70
26408;DHT22;14583;43.604;1.364;2023-09-19T14:38:59;27.10;98.60
26408;DHT22;14583;43.604;1.364;2023-09-19T14:41:25;27.40;98.40
26408;DHT22;14583;43.604;1.364;2023-09-19T14:43:54;27.50;96.30
26408;DHT22;14583;43.604;1.364;2023-09-19T14:46:22;27.70;97.70
26408;DHT22;14583;43.604;1.364;2023-09-19T14:48:51;28.00;96.20
26408;DHT22;14583;43.604;1.364;2023-09-19T14:51:17;28.40;97.40
26408;DHT22;14583;43.604;1.364;2023-09-19T14:53:44;29.00;96.70
26408;DHT22;14583;43.604;1.364;2023-09-19T14:56:14;29.00;97.00
26408;DHT22;14583;43.604;1.364;2023-09-19T14:58:43;29.70;96.30
26408;DHT22;14583;43.604;1.364;2023-09-19T15:01:10;30.20;95.30
26408;DHT22;14583;43.604;1.364;2023-09-19T15:03:37;30.50;95.60
26408;DHT22;14583;43.604;1.364;2023-09-19T15:06:06;30.40;93.50
26408;DHT22;14583;43.604;1.364;2023-09-19T15:08:33;30.60;92.40
26408;DHT22;14583;43.604;1.364;2023-09-19T15:11:03;31.00;93.00
26408;DHT22;14583;43.604;1.364;2023-09-19T15:13:31;31.70;92.40
26408;DHT22;14583;43.604;1.364;2023-09-19T15:16:07;32.00;91.40
26408;DHT22;14583;43.604;1.364;2023-09-19T15:18:35;32.20;90.60
26408;DHT22;14583;43.604;1.364;2023-09-19T15:21:04;32.90;90.70
26408;DHT22;14583;43.604;1.364;2023-09-19T15:23:30;33.00;87.10
26408;DHT22;14583;43.604;1.364;2023-09-19T15:26:02;33.70;86.00
26408;DHT22;14583;43.604;1.364;2023-09-19T15:28:29;38.60;82.40
26408;DHT22;14583;43.604;1.364;2023-09-19T15:31:12;42.00;75.30
26408;DHT22;14583;43.604;1.364;2023-09-19T15:33:38;44.50;69.80
26408;DHT22;14583;43.604;1.364;2023-09-19T15:39:06;45.40;61.20
26408;DHT22;14583;43.604;1.364;2023-09-19T15:41:35;45.70;58.30
26408;DHT22;14583;43.604;1.364;2023-09-19T15:44:03;45.90;56.90
26408;DHT22;14583;43.604;1.364;2023-09-19T15:46:29;46.00;56.40
26408;DHT22;14583;43.604;1.364;2023-09-19T15:48:56;45.80;55.80
26408;DHT22;14583;43.604;1.364;2023-09-19T15:51:22;46.00;55.00
26408;DHT22;14583;43.604;1.364;2023-09-19T15:53:49;46.10;54.50
26408;DHT22;14583;43.604;1.364;2023-09-19T15:56:16;45.90;54.50
26408;DHT22;14583;43.604;1.364;2023-09-19T15:58:46;46.30;54.30
26408;DHT22;14583;43.604;1.364;2023-09-19T16:01:13;46.30;55.10
26408;DHT22;14583;43.604;1.364;2023-09-19T16:03:45;46.40;54.50
26408;DHT22;14583;43.604;1.364;2023-09-19T16:06:13;46.30;52.90
26408;DHT22;14583;43.604;1.364;2023-09-19T16:08:40;46.00;53.30
26408;DHT22;14583;43.604;1.364;2023-09-19T16:11:07;46.00;54.10
26408;DHT22;14583;43.604;1.364;2023-09-19T16:13:33;46.00;53.60
26408;DHT22;14583;43.604;1.364;2023-09-19T16:15:59;46.10;53.70
26408;DHT22;14583;43.604;1.364;2023-09-19T16:18:24;45.90;53.00
26408;DHT22;14583;43.604;1.364;2023-09-19T16:20:50;45.70;53.80
26408;DHT22;14583;43.604;1.364;2023-09-19T16:23:17;45.40;52.60
26408;DHT22;14583;43.604;1.364;2023-09-19T16:25:42;45.10;53.10
26408;DHT22;14583;43.604;1.364;2023-09-19T16:28:08;44.90;52.80
26408;DHT22;14583;43.604;1.364;2023-09-19T16:30:34;45.00;53.00
26408;DHT22;14583;43.604;1.364;2023-09-19T16:33:00;45.00;52.70
26408;DHT22;14583;43.604;1.364;2023-09-19T16:35:26;44.50;53.00
26408;DHT22;14583;43.604;1.364;2023-09-19T16:37:51;44.40;53.10
26408;DHT22;14583;43.604;1.364;2023-09-19T16:40:17;44.30;52.90
26408;DHT22;14583;43.604;1.364;2023-09-19T16:42:43;44.20;53.50
26408;DHT22;14583;43.604;1.364;2023-09-19T16:45:09;43.80;53.40
26408;DHT22;14583;43.604;1.364;2023-09-19T16:47:36;43.30;53.10
26408;DHT22;14583;43.604;1.364;2023-09-19T16:50:02;43.00;53.60